createdAt,value
2022-12-06T00:01:09.357Z,4.80
2022-12-06T00:03:38.032Z,4.80
2022-12-06T00:06:10.266Z,4.70
2022-12-06T00:08:40.904Z,4.70
2022-12-06T00:11:10.823Z,4.80
2022-12-06T00:13:39.919Z,4.80
2022-12-06T00:16:09.679Z,4.80
2022-12-06T00:18:39.080Z,4.70
2022-12-06T00:21:09.089Z,4.80
2022-12-06T00:23:38.352Z,4.80
2022-12-06T00:26:09.169Z,4.80
2022-12-06T00:28:38.390Z,4.70
2022-12-06T00:31:08.869Z,4.80
2022-12-06T00:33:38.378Z,4.70
2022-12-06T00:36:10.978Z,4.70
2022-12-06T00:38:38.987Z,4.70
2022-12-06T00:41:10.252Z,4.70
2022-12-06T00:43:39.659Z,4.70
2022-12-06T00:46:09.432Z,4.70
2022-12-06T00:48:38.115Z,4.70
2022-12-06T00:51:06.982Z,4.70
2022-12-06T00:53:35.455Z,4.70
2022-12-06T00:56:04.724Z,4.70
2022-12-06T00:58:35.041Z,4.70
2022-12-06T01:01:09.889Z,4.70
2022-12-06T01:03:38.805Z,4.70
2022-12-06T01:06:08.757Z,4.70
2022-12-06T01:08:38.091Z,4.70
2022-12-06T01:11:07.268Z,4.70
2022-12-06T01:13:37.180Z,4.70
2022-12-06T01:16:09.841Z,4.70
2022-12-06T01:18:38.340Z,4.80
2022-12-06T01:21:07.485Z,4.70
2022-12-06T01:23:35.488Z,4.70
2022-12-06T01:26:03.981Z,4.70
2022-12-06T01:28:32.284Z,4.70
2022-12-06T01:31:07.077Z,4.70
2022-12-06T01:33:35.156Z,4.70
2022-12-06T01:36:03.171Z,4.70
2022-12-06T01:38:31.449Z,4.70
2022-12-06T01:40:59.785Z,4.60
2022-12-06T01:43:37.198Z,4.70
2022-12-06T01:46:18.742Z,4.70
2022-12-06T01:48:47.507Z,4.70
2022-12-06T01:51:16.930Z,4.60
2022-12-06T01:53:48.051Z,4.70
2022-12-06T01:56:16.407Z,4.60
2022-12-06T01:58:47.072Z,4.60
2022-12-06T02:01:16.782Z,4.60
2022-12-06T02:03:47.472Z,4.70
2022-12-06T02:06:17.596Z,4.60
2022-12-06T02:08:47.007Z,4.60
2022-12-06T02:11:15.005Z,4.60
2022-12-06T02:13:43.197Z,4.60
2022-12-06T02:16:50.043Z,4.60
2022-12-06T02:19:46.440Z,4.60
2022-12-06T02:22:22.348Z,4.60
2022-12-06T02:25:11.544Z,4.60
2022-12-06T02:28:05.933Z,4.60
2022-12-06T02:30:47.993Z,4.60
2022-12-06T02:33:23.524Z,4.60
2022-12-06T02:35:58.836Z,4.60
2022-12-06T02:38:35.936Z,4.50
2022-12-06T02:41:08.909Z,4.60
2022-12-06T02:43:41.136Z,4.60
2022-12-06T02:46:13.244Z,4.60
2022-12-06T02:48:43.016Z,4.60
2022-12-06T02:51:16.148Z,4.60
2022-12-06T02:53:48.817Z,4.60
2022-12-06T02:56:18.505Z,4.60
2022-12-06T02:58:47.693Z,4.60
2022-12-06T03:01:20.323Z,4.60
2022-12-06T03:04:16.112Z,4.60
2022-12-06T03:07:08.468Z,4.50
2022-12-06T03:09:53.419Z,4.60
2022-12-06T03:12:30.376Z,4.60
2022-12-06T03:15:06.880Z,4.50
2022-12-06T03:17:41.366Z,4.60
2022-12-06T03:20:14.106Z,4.50
2022-12-06T03:22:46.945Z,4.60
2022-12-06T03:25:16.074Z,4.60
2022-12-06T03:27:45.250Z,4.50
2022-12-06T03:30:16.186Z,4.50
2022-12-06T03:32:48.636Z,4.50
2022-12-06T03:35:21.281Z,4.50
2022-12-06T03:37:52.352Z,4.50
2022-12-06T03:40:24.928Z,4.50
2022-12-06T03:42:53.645Z,4.50
2022-12-06T03:45:24.265Z,4.50
2022-12-06T03:48:01.372Z,4.50
2022-12-06T03:50:33.534Z,4.50
2022-12-06T03:53:02.465Z,4.50
2022-12-06T03:55:30.729Z,4.40
2022-12-06T03:57:58.825Z,4.50
2022-12-06T04:00:26.809Z,4.40
2022-12-06T04:02:56.183Z,4.50
2022-12-06T04:05:24.199Z,4.40
2022-12-06T04:07:52.223Z,4.50
2022-12-06T04:10:20.301Z,4.40
2022-12-06T04:13:03.055Z,4.40
2022-12-06T04:15:34.066Z,4.40
2022-12-06T04:18:14.031Z,4.40
2022-12-06T04:21:02.233Z,4.40
2022-12-06T04:23:32.463Z,4.40
2022-12-06T04:26:00.699Z,4.40
2022-12-06T04:28:46.230Z,4.40
2022-12-06T04:31:32.010Z,4.40
2022-12-06T04:34:19.233Z,4.40
2022-12-06T04:37:05.118Z,4.40
2022-12-06T04:39:33.960Z,4.40
2022-12-06T04:42:27.785Z,4.40
2022-12-06T04:44:55.885Z,4.40
2022-12-06T04:47:24.437Z,4.40
2022-12-06T04:49:54.244Z,4.40
2022-12-06T04:52:22.361Z,4.40
2022-12-06T04:54:50.357Z,4.40
2022-12-06T04:57:18.544Z,4.40
2022-12-06T04:59:47.329Z,4.40
2022-12-06T05:02:16.988Z,4.40
2022-12-06T05:04:45.397Z,4.40
2022-12-06T05:07:14.801Z,4.40
2022-12-06T05:09:42.824Z,4.40
2022-12-06T05:12:10.859Z,4.40
2022-12-06T05:14:38.877Z,4.40
2022-12-06T05:17:06.876Z,4.40
2022-12-06T05:19:34.891Z,4.40
2022-12-06T05:22:02.915Z,4.40
2022-12-06T05:24:32.328Z,4.40
2022-12-06T05:27:00.279Z,4.40
2022-12-06T05:29:28.301Z,4.30
2022-12-06T05:31:56.356Z,4.40
2022-12-06T05:34:25.047Z,4.40
2022-12-06T05:36:53.023Z,4.40
2022-12-06T05:39:20.995Z,4.30
2022-12-06T05:41:50.372Z,4.30
2022-12-06T05:44:18.480Z,4.30
2022-12-06T05:46:46.460Z,4.30
2022-12-06T05:49:14.621Z,4.30
2022-12-06T05:51:42.631Z,4.30
2022-12-06T05:54:10.659Z,4.30
2022-12-06T05:56:39.814Z,4.30
2022-12-06T05:59:09.163Z,4.30
2022-12-06T06:01:37.191Z,4.30
2022-12-06T06:04:05.435Z,4.30
2022-12-06T06:06:33.446Z,4.30
2022-12-06T06:09:01.452Z,4.30
2022-12-06T06:11:29.549Z,4.30
2022-12-06T06:13:57.527Z,4.30
2022-12-06T06:16:26.985Z,4.30
2022-12-06T06:18:55.093Z,4.30
2022-12-06T06:21:23.074Z,4.20
2022-12-06T06:23:51.091Z,4.20
2022-12-06T06:26:19.089Z,4.20
2022-12-06T06:28:47.076Z,4.20
2022-12-06T06:31:15.692Z,4.20
2022-12-06T06:33:45.085Z,4.20
2022-12-06T06:36:13.079Z,4.20
2022-12-06T06:38:41.061Z,4.20
2022-12-06T06:41:09.230Z,4.20
2022-12-06T06:43:37.191Z,4.20
2022-12-06T06:46:07.719Z,4.20
2022-12-06T06:48:38.080Z,4.20
2022-12-06T06:51:10.708Z,4.20
2022-12-06T06:53:38.946Z,4.20
2022-12-06T06:56:07.912Z,4.20
2022-12-06T06:58:35.906Z,4.20
2022-12-06T07:01:05.902Z,4.10
2022-12-06T07:03:34.612Z,4.10
2022-12-06T07:06:04.317Z,4.10
2022-12-06T07:08:33.722Z,4.20
2022-12-06T07:11:01.995Z,4.10
2022-12-06T07:13:30.941Z,4.10
2022-12-06T07:15:59.541Z,4.10
2022-12-06T07:18:27.622Z,4.20
2022-12-06T07:21:01.104Z,4.10
2022-12-06T07:23:29.108Z,4.10
2022-12-06T07:26:07.196Z,4.10
2022-12-06T07:28:36.700Z,4.10
2022-12-06T07:31:11.951Z,4.10
2022-12-06T07:33:40.496Z,4.10
2022-12-06T07:36:12.585Z,4.10
2022-12-06T07:38:42.667Z,4.10
2022-12-06T07:41:31.076Z,4.10
2022-12-06T07:44:17.344Z,4.10
2022-12-06T07:46:45.627Z,4.10
2022-12-06T07:49:13.682Z,4.20
2022-12-06T07:51:41.743Z,4.20
2022-12-06T07:54:10.049Z,4.10
2022-12-06T07:56:39.397Z,4.10
2022-12-06T07:59:07.506Z,4.10
2022-12-06T08:01:35.808Z,4.10
2022-12-06T08:04:05.620Z,4.10
2022-12-06T08:06:35.172Z,4.10
2022-12-06T08:09:03.705Z,4.30
2022-12-06T08:11:31.745Z,4.20
2022-12-06T08:14:01.102Z,4.20
2022-12-06T08:16:29.157Z,4.20
2022-12-06T08:18:57.368Z,4.20
2022-12-06T08:21:26.248Z,4.20
2022-12-06T08:23:55.042Z,4.30
2022-12-06T08:26:23.238Z,4.30
2022-12-06T08:28:52.052Z,4.30
2022-12-06T08:31:26.349Z,4.30
2022-12-06T08:33:54.570Z,4.20
2022-12-06T08:36:24.817Z,4.30
2022-12-06T08:38:53.594Z,4.30
2022-12-06T08:41:40.122Z,4.30
2022-12-06T08:44:10.369Z,4.30
2022-12-06T08:46:40.362Z,4.30
2022-12-06T08:49:08.684Z,4.30
2022-12-06T08:51:37.569Z,4.30
2022-12-06T08:54:06.633Z,4.30
2022-12-06T08:56:34.857Z,4.20
2022-12-06T08:59:02.885Z,4.20
2022-12-06T09:01:37.810Z,4.30
2022-12-06T09:04:09.240Z,4.20
2022-12-06T09:06:39.723Z,4.30
2022-12-06T09:09:08.738Z,4.20
2022-12-06T09:11:36.898Z,4.20
2022-12-06T09:14:05.466Z,4.20
2022-12-06T09:16:33.628Z,4.20
2022-12-06T09:19:01.917Z,4.20
2022-12-06T09:21:32.891Z,4.20
2022-12-06T09:24:01.114Z,4.10
2022-12-06T09:26:29.762Z,4.10
2022-12-06T09:28:59.126Z,4.10
2022-12-06T09:31:27.596Z,4.10
2022-12-06T09:33:55.737Z,4.10
2022-12-06T09:36:26.274Z,4.10
2022-12-06T09:39:01.176Z,4.10
2022-12-06T09:42:02.376Z,4.10
2022-12-06T09:44:51.689Z,4.10
2022-12-06T09:47:31.186Z,4.10
2022-12-06T09:50:08.573Z,4.10
2022-12-06T09:53:01.898Z,4.10
2022-12-06T09:55:45.128Z,4.10
2022-12-06T09:58:24.375Z,4.10
2022-12-06T10:00:59.309Z,4.20
2022-12-06T10:03:48.992Z,4.20
2022-12-06T10:06:19.716Z,4.20
2022-12-06T10:09:13.188Z,4.20
2022-12-06T10:11:54.456Z,4.20
2022-12-06T10:14:39.812Z,4.20
2022-12-06T10:17:18.153Z,4.20
2022-12-06T10:19:56.816Z,4.20
2022-12-06T10:22:34.092Z,4.30
2022-12-06T10:25:09.152Z,4.20
2022-12-06T10:27:40.225Z,4.30
2022-12-06T10:30:11.599Z,4.30
2022-12-06T10:32:54.321Z,4.30
2022-12-06T10:35:43.565Z,4.30
2022-12-06T10:38:21.076Z,4.30
2022-12-06T10:40:58.129Z,4.30
2022-12-06T10:43:36.388Z,4.30
2022-12-06T10:46:28.834Z,4.30
2022-12-06T10:49:03.813Z,4.30
2022-12-06T10:51:38.157Z,4.40
2022-12-06T10:54:21.424Z,4.40
2022-12-06T10:56:52.597Z,4.40
2022-12-06T10:59:32.611Z,4.40
2022-12-06T11:02:11.825Z,4.40
2022-12-06T11:04:40.740Z,4.40
2022-12-06T11:07:16.784Z,4.40
2022-12-06T11:09:50.073Z,4.40
2022-12-06T11:12:29.571Z,4.40
2022-12-06T11:15:13.239Z,4.40
2022-12-06T11:17:47.767Z,4.40
2022-12-06T11:20:25.472Z,4.40
2022-12-06T11:23:05.934Z,4.40
2022-12-06T11:25:42.555Z,4.40
2022-12-06T11:28:23.105Z,4.40
2022-12-06T11:30:55.241Z,4.40
2022-12-06T11:33:34.268Z,4.40
2022-12-06T11:36:06.709Z,4.30
2022-12-06T11:38:35.594Z,4.30
2022-12-06T11:41:06.428Z,4.30
2022-12-06T11:43:35.945Z,4.30
2022-12-06T11:46:06.661Z,4.30
2022-12-06T11:48:36.587Z,4.20
2022-12-06T11:51:14.172Z,4.20
2022-12-06T11:53:48.910Z,4.20
2022-12-06T11:56:24.919Z,4.20
2022-12-06T11:59:15.181Z,4.20
2022-12-06T12:01:46.554Z,4.20
2022-12-06T12:04:26.912Z,4.20
2022-12-06T12:07:10.984Z,4.20
2022-12-06T12:09:49.810Z,4.20
2022-12-06T12:12:22.228Z,4.20
2022-12-06T12:14:55.768Z,4.20
2022-12-06T12:17:29.233Z,4.30
2022-12-06T12:20:01.748Z,4.40
2022-12-06T12:22:36.991Z,4.40
2022-12-06T12:25:23.461Z,4.50
2022-12-06T12:27:53.605Z,4.50
2022-12-06T12:30:27.812Z,4.50
2022-12-06T12:33:14.991Z,4.50
2022-12-06T12:35:44.931Z,4.50
2022-12-06T12:38:28.332Z,4.50
2022-12-06T12:40:59.390Z,4.50
2022-12-06T12:43:31.180Z,4.50
2022-12-06T12:46:18.638Z,4.50
2022-12-06T12:48:48.887Z,4.50
2022-12-06T12:51:32.741Z,4.60
2022-12-06T12:54:04.477Z,4.60
2022-12-06T12:56:35.848Z,4.60
2022-12-06T12:59:07.728Z,4.60
2022-12-06T13:01:43.378Z,4.70
2022-12-06T13:04:28.184Z,4.70
2022-12-06T13:07:00.271Z,4.70
2022-12-06T13:09:33.848Z,4.70
2022-12-06T13:12:05.469Z,4.60
2022-12-06T13:14:38.640Z,4.70
2022-12-06T13:17:10.054Z,4.70
2022-12-06T13:19:42.852Z,4.70
2022-12-06T13:22:17.304Z,4.70
2022-12-06T13:24:51.780Z,4.70
2022-12-06T13:27:24.369Z,4.70
2022-12-06T13:29:58.431Z,4.70
2022-12-06T13:32:33.321Z,4.70
2022-12-06T13:35:05.612Z,4.70
2022-12-06T13:37:43.274Z,4.70
2022-12-06T13:40:40.352Z,4.70
2022-12-06T13:43:56.610Z,4.70
2022-12-06T13:46:34.513Z,4.60
2022-12-06T13:49:05.539Z,4.70
2022-12-06T13:51:45.363Z,4.60
2022-12-06T13:54:30.174Z,4.60
2022-12-06T13:57:03.048Z,4.50
2022-12-06T13:59:39.231Z,4.50
2022-12-06T14:02:40.689Z,4.50
2022-12-06T14:05:42.005Z,4.50
2022-12-06T14:08:12.790Z,4.50
2022-12-06T14:10:41.229Z,4.40
2022-12-06T14:13:18.252Z,4.50
2022-12-06T14:15:49.009Z,4.50
2022-12-06T14:18:22.792Z,4.40
2022-12-06T14:20:54.398Z,4.30
2022-12-06T14:23:25.809Z,4.30
2022-12-06T14:26:13.206Z,4.20
2022-12-06T14:28:43.565Z,4.10
2022-12-06T14:31:28.936Z,4.10
2022-12-06T14:33:58.222Z,4.10
2022-12-06T14:36:29.931Z,4.00
2022-12-06T14:39:03.124Z,4.00
2022-12-06T14:41:55.601Z,3.90
2022-12-06T14:44:30.910Z,3.90
2022-12-06T14:46:59.886Z,3.90
2022-12-06T14:49:47.116Z,3.90
2022-12-06T14:52:24.948Z,3.80
2022-12-06T14:54:54.302Z,3.70
2022-12-06T14:57:27.964Z,3.70
2022-12-06T15:00:16.137Z,3.70
2022-12-06T15:03:32.095Z,3.70
2022-12-06T15:06:13.699Z,3.70
2022-12-06T15:08:42.895Z,3.70
2022-12-06T15:11:44.503Z,3.70
2022-12-06T15:14:16.978Z,3.70
2022-12-06T15:16:55.949Z,3.60
2022-12-06T15:19:24.205Z,3.60
2022-12-06T15:21:53.363Z,3.60
2022-12-06T15:24:23.382Z,3.60
2022-12-06T15:26:51.588Z,3.60
2022-12-06T15:29:20.114Z,3.50
2022-12-06T15:31:51.428Z,3.60
2022-12-06T15:34:25.092Z,3.60
2022-12-06T15:37:09.082Z,3.60
2022-12-06T15:39:41.735Z,3.50
2022-12-06T15:42:17.703Z,3.50
2022-12-06T15:44:49.586Z,3.50
2022-12-06T15:47:20.422Z,3.50
2022-12-06T15:49:50.874Z,3.50
2022-12-06T15:52:22.936Z,3.60
2022-12-06T15:54:51.228Z,3.50
2022-12-06T15:57:19.208Z,3.50
2022-12-06T15:59:47.178Z,3.60
2022-12-06T16:02:17.147Z,3.60
2022-12-06T16:04:48.278Z,3.60
2022-12-06T16:07:18.654Z,3.70
2022-12-06T16:09:47.826Z,3.70
2022-12-06T16:12:15.944Z,3.70
2022-12-06T16:14:44.223Z,3.70
2022-12-06T16:17:12.253Z,3.80
2022-12-06T16:19:57.458Z,3.80
2022-12-06T16:22:40.752Z,3.70
2022-12-06T16:25:09.387Z,3.70
2022-12-06T16:27:37.363Z,3.70
2022-12-06T16:30:06.181Z,3.70
2022-12-06T16:32:44.414Z,3.70
2022-12-06T16:35:12.478Z,3.60
2022-12-06T16:37:45.015Z,3.70
2022-12-06T16:40:20.653Z,3.70
2022-12-06T16:42:51.900Z,3.50
2022-12-06T16:45:20.402Z,3.50
2022-12-06T16:47:48.626Z,3.40
2022-12-06T16:50:22.289Z,3.50
2022-12-06T16:52:51.868Z,3.40
2022-12-06T16:55:19.892Z,3.40
2022-12-06T16:57:48.228Z,3.40
2022-12-06T17:00:17.467Z,3.40
2022-12-06T17:02:45.683Z,3.40
2022-12-06T17:05:19.464Z,3.40
2022-12-06T17:07:47.574Z,3.40
2022-12-06T17:10:18.221Z,3.40
2022-12-06T17:12:48.149Z,3.40
2022-12-06T17:15:18.287Z,3.40
2022-12-06T17:17:46.945Z,3.40
2022-12-06T17:20:16.751Z,3.40
2022-12-06T17:22:48.442Z,3.40
2022-12-06T17:25:18.164Z,3.30
2022-12-06T17:27:46.540Z,3.40
2022-12-06T17:30:17.894Z,3.40
2022-12-06T17:32:47.872Z,3.40
2022-12-06T17:35:16.171Z,3.30
2022-12-06T17:37:44.237Z,3.40
2022-12-06T17:40:13.232Z,3.30
2022-12-06T17:42:59.827Z,3.30
2022-12-06T17:45:35.283Z,3.30
2022-12-06T17:48:07.514Z,3.20
2022-12-06T17:50:37.299Z,3.20
2022-12-06T17:53:05.517Z,3.10
2022-12-06T17:55:33.909Z,3.10
2022-12-06T17:58:06.458Z,3.10
2022-12-06T18:00:34.622Z,3.00
2022-12-06T18:03:03.128Z,3.00
2022-12-06T18:05:31.484Z,3.00
2022-12-06T18:08:05.091Z,2.90
2022-12-06T18:10:33.243Z,2.90
2022-12-06T18:13:02.719Z,2.90
2022-12-06T18:15:43.675Z,2.90
2022-12-06T18:18:11.663Z,2.90
2022-12-06T18:20:39.797Z,2.90
2022-12-06T18:23:07.992Z,2.90
2022-12-06T18:25:38.685Z,2.90
2022-12-06T18:28:06.698Z,2.80
2022-12-06T18:30:36.381Z,2.80
2022-12-06T18:33:05.032Z,2.80
2022-12-06T18:35:36.220Z,2.80
2022-12-06T18:38:04.364Z,2.80
2022-12-06T18:40:33.898Z,2.80
2022-12-06T18:43:01.913Z,2.80
2022-12-06T18:45:29.979Z,2.80
2022-12-06T18:47:59.356Z,2.80
2022-12-06T18:50:27.353Z,2.80
2022-12-06T18:52:55.534Z,2.80
2022-12-06T18:55:23.539Z,2.90
2022-12-06T18:57:51.538Z,2.80
2022-12-06T19:00:20.281Z,2.80
2022-12-06T19:02:48.376Z,2.80
2022-12-06T19:05:32.952Z,2.80
2022-12-06T19:08:06.515Z,2.90
2022-12-06T19:10:34.537Z,2.90
2022-12-06T19:13:05.860Z,2.90
2022-12-06T19:15:34.103Z,3.00
2022-12-06T19:18:02.057Z,3.00
2022-12-06T19:20:31.413Z,3.10
2022-12-06T19:23:12.744Z,3.00
2022-12-06T19:25:40.744Z,3.10
2022-12-06T19:28:10.104Z,3.00
2022-12-06T19:30:38.213Z,3.00
2022-12-06T19:33:06.237Z,3.00
2022-12-06T19:35:35.597Z,3.00
2022-12-06T19:38:03.575Z,3.00
2022-12-06T19:40:31.562Z,3.00
2022-12-06T19:43:17.289Z,2.90
2022-12-06T19:45:45.358Z,2.90
2022-12-06T19:48:14.520Z,3.00
2022-12-06T19:50:45.919Z,3.10
2022-12-06T19:53:13.929Z,3.00
2022-12-06T19:55:46.967Z,3.10
2022-12-06T19:58:15.037Z,3.10
2022-12-06T20:00:43.642Z,3.10
2022-12-06T20:03:11.672Z,3.00
2022-12-06T20:05:39.702Z,3.00
2022-12-06T20:08:09.066Z,3.00
2022-12-06T20:10:37.768Z,3.00
2022-12-06T20:13:06.584Z,3.00
2022-12-06T20:15:34.642Z,3.00
2022-12-06T20:18:02.677Z,3.10
2022-12-06T20:20:31.275Z,3.10
2022-12-06T20:22:59.240Z,3.10
2022-12-06T20:25:28.593Z,3.20
2022-12-06T20:27:57.233Z,3.20
2022-12-06T20:30:25.493Z,3.20
2022-12-06T20:32:53.495Z,3.20
2022-12-06T20:35:21.476Z,3.30
2022-12-06T20:37:51.299Z,3.30
2022-12-06T20:40:19.397Z,3.30
2022-12-06T20:42:49.581Z,3.30
2022-12-06T20:45:20.299Z,3.30
2022-12-06T20:47:50.913Z,3.20
2022-12-06T20:50:19.144Z,3.30
2022-12-06T20:52:47.148Z,3.30
2022-12-06T20:55:15.213Z,3.40
2022-12-06T20:57:43.260Z,3.50
2022-12-06T21:00:14.322Z,3.40
2022-12-06T21:02:42.674Z,3.30
2022-12-06T21:05:10.876Z,3.30
2022-12-06T21:07:38.946Z,3.30
2022-12-06T21:10:08.612Z,3.40
2022-12-06T21:12:36.620Z,3.30
2022-12-06T21:15:05.095Z,3.40
2022-12-06T21:17:34.641Z,3.30
2022-12-06T21:20:02.900Z,3.30
2022-12-06T21:22:31.136Z,3.40
2022-12-06T21:24:59.107Z,3.50
2022-12-06T21:27:27.434Z,3.50
2022-12-06T21:29:55.897Z,3.50
2022-12-06T21:32:25.740Z,3.50
2022-12-06T21:34:55.261Z,3.50
2022-12-06T21:37:23.263Z,3.50
2022-12-06T21:39:51.401Z,3.50
2022-12-06T21:42:21.126Z,3.50
2022-12-06T21:44:49.655Z,3.50
2022-12-06T21:47:17.701Z,3.50
2022-12-06T21:49:45.647Z,3.50
2022-12-06T21:52:14.998Z,3.50
2022-12-06T21:54:43.345Z,3.50
2022-12-06T21:57:11.781Z,3.50
2022-12-06T21:59:40.085Z,3.50
2022-12-06T22:02:10.385Z,3.50
2022-12-06T22:04:38.717Z,3.50
2022-12-06T22:07:06.742Z,3.50
2022-12-06T22:09:36.102Z,3.50
2022-12-06T22:12:04.561Z,3.40
2022-12-06T22:14:32.560Z,3.40
2022-12-06T22:17:00.551Z,3.40
2022-12-06T22:19:28.714Z,3.40
2022-12-06T22:21:57.002Z,3.50
2022-12-06T22:24:25.370Z,3.50
2022-12-06T22:26:54.768Z,3.50
2022-12-06T22:29:22.758Z,3.50
2022-12-06T22:31:50.852Z,3.50
2022-12-06T22:34:18.864Z,3.50
2022-12-06T22:36:46.844Z,3.60
2022-12-06T22:39:14.847Z,3.60
2022-12-06T22:41:42.814Z,3.60
2022-12-06T22:44:12.863Z,3.60
2022-12-06T22:46:40.893Z,3.60
2022-12-06T22:49:10.759Z,3.60
2022-12-06T22:51:41.833Z,3.50
2022-12-06T22:54:12.401Z,3.50
2022-12-06T22:56:47.213Z,3.60
2022-12-06T22:59:17.576Z,3.50
2022-12-06T23:01:45.739Z,3.50
2022-12-06T23:04:13.842Z,3.60
2022-12-06T23:06:41.984Z,3.60
2022-12-06T23:09:10.127Z,3.60
2022-12-06T23:11:38.425Z,3.60
2022-12-06T23:14:08.033Z,3.60
2022-12-06T23:16:37.475Z,3.70
2022-12-06T23:19:05.880Z,3.70
2022-12-06T23:21:35.532Z,3.70
2022-12-06T23:24:08.323Z,3.80
2022-12-06T23:26:38.887Z,3.70
2022-12-06T23:29:07.849Z,3.70
2022-12-06T23:31:39.664Z,3.70
2022-12-06T23:34:12.027Z,3.70
2022-12-06T23:36:40.087Z,3.60
2022-12-06T23:39:08.549Z,3.70
2022-12-06T23:41:37.541Z,3.70
2022-12-06T23:44:06.588Z,3.70
2022-12-06T23:46:38.201Z,3.70
2022-12-06T23:49:07.696Z,3.60
2022-12-06T23:51:38.327Z,3.60
2022-12-06T23:54:08.219Z,3.50
2022-12-06T23:56:38.496Z,3.50
2022-12-06T23:59:08.252Z,3.40
